createdAt,value
2018-12-29T00:01:55.351Z,12.57
2018-12-29T00:03:59.840Z,17.63
2018-12-29T00:06:04.256Z,15.10
2018-12-29T00:08:08.594Z,10.43
2018-12-29T00:10:13.092Z,15.10
2018-12-29T00:12:17.463Z,17.27
2018-12-29T00:14:21.822Z,16.60
2018-12-29T00:16:26.341Z,11.20
2018-12-29T00:18:30.755Z,15.63
2018-12-29T00:20:35.202Z,15.80
2018-12-29T00:22:39.746Z,17.80
2018-12-29T00:24:44.090Z,19.80
2018-12-29T00:26:48.448Z,15.73
2018-12-29T00:28:52.957Z,15.43
2018-12-29T00:30:57.846Z,17.47
2018-12-29T00:33:02.200Z,14.03
2018-12-29T00:35:06.670Z,18.30
2018-12-29T00:37:11.177Z,15.27
2018-12-29T00:39:15.531Z,17.73
2018-12-29T00:41:19.943Z,20.97
2018-12-29T00:43:24.307Z,17.97
2018-12-29T00:45:28.716Z,13.93
2018-12-29T00:47:33.091Z,16.97
2018-12-29T00:49:37.450Z,18.13
2018-12-29T00:51:41.818Z,17.57
2018-12-29T00:53:46.210Z,13.40
2018-12-29T00:55:50.575Z,17.97
2018-12-29T00:57:55.027Z,17.57
2018-12-29T00:59:59.894Z,15.97
2018-12-29T01:02:04.658Z,17.73
2018-12-29T01:04:08.986Z,15.53
2018-12-29T01:06:13.451Z,19.17
2018-12-29T01:08:17.827Z,14.47
2018-12-29T01:10:22.258Z,15.20
2018-12-29T01:12:26.678Z,15.13
2018-12-29T01:14:31.064Z,16.43
2018-12-29T01:16:35.463Z,14.20
2018-12-29T01:18:39.838Z,18.53
2018-12-29T01:20:44.374Z,17.27
2018-12-29T01:22:48.734Z,11.57
2018-12-29T01:24:53.063Z,17.50
2018-12-29T01:26:57.532Z,13.73
2018-12-29T01:29:01.934Z,15.80
2018-12-29T01:31:06.333Z,14.50
2018-12-29T01:33:10.701Z,18.70
2018-12-29T01:35:15.102Z,15.37
2018-12-29T01:37:19.546Z,10.50
2018-12-29T01:39:23.901Z,15.17
2018-12-29T01:41:28.340Z,16.57
2018-12-29T01:43:32.718Z,15.67
2018-12-29T01:45:37.099Z,17.03
2018-12-29T01:47:41.521Z,16.93
2018-12-29T01:49:46.388Z,14.97
2018-12-29T01:51:50.782Z,15.00
2018-12-29T01:53:55.234Z,14.33
2018-12-29T01:55:59.649Z,12.07
2018-12-29T01:58:04.052Z,17.50
2018-12-29T02:00:08.503Z,15.17
2018-12-29T02:02:13.019Z,13.70
2018-12-29T02:04:17.375Z,17.17
2018-12-29T02:06:21.721Z,16.10
2018-12-29T02:08:26.118Z,14.73
2018-12-29T02:10:30.480Z,18.97
2018-12-29T02:12:41.151Z,15.37
2018-12-29T02:14:45.574Z,18.83
2018-12-29T02:16:49.991Z,17.83
2018-12-29T02:18:54.410Z,16.50
2018-12-29T02:20:58.849Z,17.90
2018-12-29T02:23:03.202Z,18.83
2018-12-29T02:25:07.651Z,16.33
2018-12-29T02:27:12.020Z,16.63
2018-12-29T02:29:16.362Z,17.87
2018-12-29T02:31:20.777Z,14.43
2018-12-29T02:33:25.136Z,16.67
2018-12-29T02:35:29.532Z,17.13
2018-12-29T02:37:33.915Z,12.33
2018-12-29T02:39:38.258Z,16.67
2018-12-29T02:41:42.626Z,17.30
2018-12-29T02:43:47.936Z,19.90
2018-12-29T02:45:52.303Z,17.40
2018-12-29T02:47:56.669Z,18.07
2018-12-29T02:50:01.123Z,18.40
2018-12-29T02:52:05.499Z,15.97
2018-12-29T02:54:09.950Z,18.07
2018-12-29T02:56:14.375Z,17.07
2018-12-29T02:58:18.741Z,17.27
2018-12-29T03:00:23.246Z,18.30
2018-12-29T03:02:27.945Z,18.47
2018-12-29T03:04:32.353Z,17.57
2018-12-29T03:06:36.726Z,17.27
2018-12-29T03:08:41.091Z,16.13
2018-12-29T03:10:45.503Z,17.70
2018-12-29T03:12:49.891Z,17.20
2018-12-29T03:14:54.243Z,16.40
2018-12-29T03:16:58.681Z,17.30
2018-12-29T03:19:03.801Z,18.17
2018-12-29T03:21:08.194Z,17.07
2018-12-29T03:23:12.638Z,8.27
2018-12-29T03:25:17.727Z,11.53
2018-12-29T03:27:22.115Z,16.93
2018-12-29T03:29:26.474Z,14.73
2018-12-29T03:31:31.053Z,14.13
2018-12-29T03:33:35.415Z,17.77
2018-12-29T03:35:39.778Z,19.00
2018-12-29T03:37:44.197Z,19.60
2018-12-29T03:39:48.621Z,17.83
2018-12-29T03:41:52.954Z,15.53
2018-12-29T03:43:57.350Z,13.17
2018-12-29T03:46:01.811Z,10.27
2018-12-29T03:48:06.215Z,14.87
2018-12-29T03:50:10.699Z,14.37
2018-12-29T03:52:15.191Z,15.47
2018-12-29T03:54:19.533Z,11.93
2018-12-29T03:56:23.925Z,17.27
2018-12-29T03:58:28.314Z,8.07
2018-12-29T04:00:32.685Z,9.40
2018-12-29T04:02:37.064Z,17.53
2018-12-29T04:04:41.420Z,18.73
2018-12-29T04:06:45.777Z,20.30
2018-12-29T04:09:01.322Z,17.67
2018-12-29T04:11:05.711Z,18.90
2018-12-29T04:13:10.111Z,18.17
2018-12-29T04:15:14.470Z,20.67
2018-12-29T04:17:19.607Z,17.70
2018-12-29T04:19:24.005Z,21.50
2018-12-29T04:21:28.346Z,17.53
2018-12-29T04:23:33.340Z,15.33
2018-12-29T04:25:37.728Z,19.83
2018-12-29T04:27:42.089Z,18.33
2018-12-29T04:29:46.463Z,18.53
2018-12-29T04:31:50.831Z,15.47
2018-12-29T04:33:55.195Z,14.10
2018-12-29T04:35:59.617Z,14.90
2018-12-29T04:38:04.012Z,16.70
2018-12-29T04:40:08.426Z,14.57
2018-12-29T04:42:12.840Z,16.67
2018-12-29T04:44:17.214Z,10.50
2018-12-29T04:46:21.596Z,13.07
2018-12-29T04:48:25.970Z,15.83
2018-12-29T04:50:30.386Z,18.77
2018-12-29T04:52:34.870Z,15.63
2018-12-29T04:54:39.250Z,17.97
2018-12-29T04:56:43.635Z,12.80
2018-12-29T04:58:47.964Z,20.50
2018-12-29T05:00:52.366Z,15.47
2018-12-29T05:02:56.782Z,19.53
2018-12-29T05:05:01.224Z,16.93
2018-12-29T05:07:06.703Z,15.80
2018-12-29T05:09:11.114Z,15.20
2018-12-29T05:11:15.493Z,14.43
2018-12-29T05:13:19.849Z,13.67
2018-12-29T05:15:24.231Z,14.57
2018-12-29T05:17:28.700Z,15.10
2018-12-29T05:19:33.078Z,16.97
2018-12-29T05:21:37.473Z,17.50
2018-12-29T05:23:41.947Z,14.97
2018-12-29T05:25:46.278Z,16.13
2018-12-29T05:27:51.205Z,15.07
2018-12-29T05:29:55.686Z,16.37
2018-12-29T05:32:00.055Z,14.90
2018-12-29T05:34:04.512Z,15.57
2018-12-29T05:36:09.079Z,12.80
2018-12-29T05:38:13.468Z,10.97
2018-12-29T05:40:17.953Z,15.50
2018-12-29T05:42:22.341Z,12.57
2018-12-29T05:44:26.718Z,12.43
2018-12-29T05:46:37.592Z,11.60
2018-12-29T05:48:41.974Z,14.47
2018-12-29T05:50:46.314Z,15.23
2018-12-29T05:52:50.668Z,16.23
2018-12-29T05:54:55.046Z,13.30
2018-12-29T05:56:59.396Z,16.13
2018-12-29T05:59:03.901Z,12.37
2018-12-29T06:01:08.299Z,13.90
2018-12-29T06:03:12.738Z,14.40
2018-12-29T06:05:17.115Z,16.00
2018-12-29T06:07:21.607Z,17.70
2018-12-29T06:09:25.974Z,14.37
2018-12-29T06:11:30.338Z,16.00
2018-12-29T06:13:34.742Z,14.87
2018-12-29T06:15:39.081Z,13.33
2018-12-29T06:17:43.422Z,14.33
2018-12-29T06:19:47.807Z,16.07
2018-12-29T06:21:52.314Z,14.90
2018-12-29T06:23:56.646Z,13.87
2018-12-29T06:26:01.032Z,12.23
2018-12-29T06:28:05.424Z,13.43
2018-12-29T06:30:09.847Z,14.17
2018-12-29T06:32:14.374Z,13.47
2018-12-29T06:34:18.731Z,14.10
2018-12-29T06:36:23.094Z,8.23
2018-12-29T06:38:27.514Z,12.73
2018-12-29T06:40:31.914Z,11.17
2018-12-29T06:42:36.375Z,13.27
2018-12-29T06:44:40.724Z,12.03
2018-12-29T06:46:45.096Z,11.37
2018-12-29T06:48:49.470Z,12.63
2018-12-29T06:50:53.833Z,13.23
2018-12-29T06:52:58.230Z,13.87
2018-12-29T06:55:02.575Z,9.77
2018-12-29T06:57:13.610Z,12.40
2018-12-29T06:59:18.024Z,12.97
2018-12-29T07:01:22.369Z,11.03
2018-12-29T07:03:26.758Z,11.43
2018-12-29T07:05:31.115Z,11.30
2018-12-29T07:07:35.500Z,13.40
2018-12-29T07:09:40.706Z,12.73
2018-12-29T07:11:45.051Z,12.30
2018-12-29T07:13:49.476Z,12.70
2018-12-29T07:15:53.929Z,11.93
2018-12-29T07:17:58.385Z,11.90
2018-12-29T07:20:02.851Z,11.97
2018-12-29T07:22:07.287Z,11.20
2018-12-29T07:24:11.695Z,13.03
2018-12-29T07:26:16.053Z,14.17
2018-12-29T07:28:20.455Z,11.33
2018-12-29T07:30:24.969Z,13.87
2018-12-29T07:32:29.306Z,8.03
2018-12-29T07:34:33.664Z,10.83
2018-12-29T07:36:38.076Z,13.70
2018-12-29T07:38:42.494Z,13.30
2018-12-29T07:40:46.864Z,12.20
2018-12-29T07:42:51.280Z,11.47
2018-12-29T07:44:55.653Z,11.83
2018-12-29T07:47:00.047Z,9.47
2018-12-29T07:49:04.402Z,11.90
2018-12-29T07:51:08.840Z,14.03
2018-12-29T07:53:13.238Z,14.60
2018-12-29T07:55:17.603Z,13.63
2018-12-29T07:57:22.042Z,7.80
2018-12-29T07:59:26.479Z,13.10
2018-12-29T08:01:30.869Z,10.83
2018-12-29T08:03:35.221Z,12.77
2018-12-29T08:05:39.657Z,9.07
2018-12-29T08:07:44.035Z,13.43
2018-12-29T08:09:48.453Z,11.67
2018-12-29T08:11:52.809Z,11.23
2018-12-29T08:13:57.306Z,13.93
2018-12-29T08:16:01.675Z,10.70
2018-12-29T08:18:06.028Z,10.93
2018-12-29T08:20:10.776Z,13.83
2018-12-29T08:22:15.129Z,13.40
2018-12-29T08:24:19.524Z,13.40
2018-12-29T08:26:23.997Z,13.40
2018-12-29T08:28:28.375Z,11.43
2018-12-29T08:30:32.776Z,13.80
2018-12-29T08:32:37.155Z,13.50
2018-12-29T08:34:41.518Z,11.43
2018-12-29T08:36:45.912Z,8.57
2018-12-29T08:38:50.271Z,11.73
2018-12-29T08:40:54.687Z,13.77
2018-12-29T08:42:59.069Z,14.40
2018-12-29T08:47:50.976Z,13.93
2018-12-29T08:49:56.536Z,10.93
2018-12-29T08:52:00.882Z,10.53
2018-12-29T08:54:05.271Z,14.00
2018-12-29T08:56:09.655Z,13.57
2018-12-29T08:58:14.610Z,10.07
2018-12-29T09:00:19.132Z,13.20
2018-12-29T09:02:23.753Z,14.97
2018-12-29T09:04:28.220Z,13.27
2018-12-29T09:06:32.545Z,14.43
2018-12-29T09:08:36.912Z,13.97
2018-12-29T09:10:41.302Z,11.80
2018-12-29T09:12:45.638Z,13.67
2018-12-29T09:14:51.631Z,8.13
2018-12-29T09:16:54.416Z,12.30
2018-12-29T09:18:58.859Z,6.33
2018-12-29T09:21:03.241Z,14.47
2018-12-29T09:23:08.614Z,9.30
2018-12-29T09:25:13.816Z,14.17
2018-12-29T09:27:18.240Z,15.80
2018-12-29T09:29:22.588Z,13.57
2018-12-29T09:31:27.128Z,14.63
2018-12-29T09:33:31.983Z,12.50
2018-12-29T09:35:36.438Z,13.33
2018-12-29T09:37:40.841Z,15.00
2018-12-29T09:39:45.221Z,14.97
2018-12-29T09:41:49.606Z,6.03
2018-12-29T09:43:54.170Z,14.43
2018-12-29T09:45:58.522Z,11.87
2018-12-29T09:48:02.903Z,12.70
2018-12-29T09:50:07.540Z,12.77
2018-12-29T09:52:11.951Z,14.07
2018-12-29T09:54:16.374Z,11.90
2018-12-29T09:56:20.806Z,12.97
2018-12-29T09:58:25.165Z,14.53
2018-12-29T10:00:30.521Z,9.10
2018-12-29T10:02:34.941Z,13.03
2018-12-29T10:04:39.304Z,17.33
2018-12-29T10:06:43.706Z,14.53
2018-12-29T10:08:48.077Z,9.70
2018-12-29T10:10:52.418Z,12.80
2018-12-29T10:12:56.824Z,11.67
2018-12-29T10:15:01.295Z,7.77
2018-12-29T10:17:05.693Z,12.43
2018-12-29T10:19:10.072Z,9.37
2018-12-29T10:21:14.521Z,16.17
2018-12-29T10:23:18.946Z,12.47
2018-12-29T10:25:23.289Z,14.27
2018-12-29T10:27:27.655Z,11.97
2018-12-29T10:29:33.052Z,14.50
2018-12-29T10:31:37.512Z,15.37
2018-12-29T10:33:41.890Z,7.17
2018-12-29T10:35:46.284Z,16.97
2018-12-29T10:37:50.726Z,12.57
2018-12-29T10:39:55.100Z,13.07
2018-12-29T10:41:59.518Z,17.00
2018-12-29T10:44:03.938Z,13.67
2018-12-29T10:46:08.315Z,14.20
2018-12-29T10:48:12.710Z,14.33
2018-12-29T10:50:17.230Z,13.17
2018-12-29T10:52:21.745Z,14.27
2018-12-29T10:54:26.172Z,11.23
2018-12-29T10:56:30.583Z,14.90
2018-12-29T10:58:34.997Z,12.83
2018-12-29T11:00:39.952Z,10.60
2018-12-29T11:02:44.332Z,14.73
2018-12-29T11:04:48.701Z,15.13
2018-12-29T11:06:53.104Z,13.97
2018-12-29T11:08:57.835Z,11.93
2018-12-29T11:11:02.287Z,16.10
2018-12-29T11:13:06.728Z,15.80
2018-12-29T11:15:11.114Z,16.27
2018-12-29T11:17:15.495Z,14.90
2018-12-29T11:19:19.963Z,12.67
2018-12-29T11:21:24.334Z,7.93
2018-12-29T11:23:28.682Z,9.77
2018-12-29T11:25:33.982Z,14.13
2018-12-29T11:27:38.459Z,14.67
2018-12-29T11:29:42.922Z,10.50
2018-12-29T11:31:47.342Z,15.70
2018-12-29T11:33:51.711Z,13.73
2018-12-29T11:35:56.736Z,9.97
2018-12-29T11:38:00.486Z,20.70
2018-12-29T11:40:05.007Z,13.10
2018-12-29T11:42:09.429Z,13.03
2018-12-29T11:44:14.354Z,16.83
2018-12-29T11:46:20.087Z,13.30
2018-12-29T11:48:24.523Z,15.47
2018-12-29T11:50:28.990Z,13.53
2018-12-29T11:52:33.431Z,17.10
2018-12-29T11:54:37.826Z,15.30
2018-12-29T11:56:42.281Z,14.23
2018-12-29T11:58:46.779Z,10.70
2018-12-29T12:00:51.197Z,8.37
2018-12-29T12:02:55.604Z,16.10
2018-12-29T12:05:00.001Z,11.83
2018-12-29T12:07:05.519Z,14.40
2018-12-29T12:09:09.930Z,16.67
2018-12-29T12:11:14.326Z,14.17
2018-12-29T12:13:18.821Z,8.50
2018-12-29T12:15:29.974Z,14.90
2018-12-29T12:17:34.454Z,13.40
2018-12-29T12:19:38.842Z,12.17
2018-12-29T12:21:43.274Z,14.70
2018-12-29T12:23:47.919Z,13.57
2018-12-29T12:25:53.306Z,11.43
2018-12-29T12:27:56.702Z,15.27
2018-12-29T12:30:01.106Z,9.67
2018-12-29T12:32:05.642Z,14.97
2018-12-29T12:34:10.019Z,11.40
2018-12-29T12:36:14.446Z,17.13
2018-12-29T12:40:36.098Z,12.60
2018-12-29T12:42:40.482Z,12.70
2018-12-29T12:44:44.854Z,10.30
2018-12-29T12:46:49.357Z,13.63
2018-12-29T12:48:53.674Z,15.70
2018-12-29T12:50:58.086Z,9.93
2018-12-29T12:53:02.502Z,12.57
2018-12-29T12:55:06.901Z,14.60
2018-12-29T12:57:11.278Z,9.23
2018-12-29T12:59:15.701Z,14.90
2018-12-29T13:01:20.092Z,14.40
2018-12-29T13:03:24.539Z,13.63
2018-12-29T13:05:28.906Z,9.77
2018-12-29T13:07:33.335Z,12.13
2018-12-29T13:09:37.685Z,7.33
2018-12-29T13:11:42.049Z,13.10
2018-12-29T13:13:46.459Z,9.60
2018-12-29T13:15:50.858Z,13.60
2018-12-29T13:17:56.336Z,10.73
2018-12-29T13:20:00.977Z,11.97
2018-12-29T13:22:05.402Z,11.57
2018-12-29T13:24:10.495Z,13.03
2018-12-29T13:26:14.853Z,13.80
2018-12-29T13:28:19.239Z,13.87
2018-12-29T13:30:23.674Z,13.03
2018-12-29T13:32:28.168Z,14.97
2018-12-29T13:34:32.595Z,14.70
2018-12-29T13:36:36.985Z,13.53
2018-12-29T13:38:41.380Z,14.10
2018-12-29T13:40:45.873Z,13.10
2018-12-29T13:42:50.438Z,11.30
2018-12-29T13:44:54.962Z,14.67
2018-12-29T13:46:59.354Z,11.67
2018-12-29T13:49:03.819Z,12.03
2018-12-29T13:51:08.289Z,5.33
2018-12-29T13:53:12.631Z,11.70
2018-12-29T13:55:16.998Z,8.83
2018-12-29T13:57:22.052Z,12.80
2018-12-29T13:59:26.446Z,14.53
2018-12-29T14:01:30.923Z,8.13
2018-12-29T14:03:35.353Z,11.30
2018-12-29T14:05:40.342Z,9.07
2018-12-29T14:07:44.748Z,12.10
2018-12-29T14:09:49.159Z,8.27
2018-12-29T14:11:53.580Z,9.57
2018-12-29T14:13:57.972Z,12.17
2018-12-29T14:16:02.371Z,12.47
2018-12-29T14:18:06.787Z,11.77
2018-12-29T14:20:11.281Z,11.87
2018-12-29T14:22:15.703Z,10.53
2018-12-29T14:24:20.134Z,9.10
2018-12-29T14:26:24.586Z,10.47
2018-12-29T14:28:29.046Z,11.83
2018-12-29T14:30:33.447Z,12.60
2018-12-29T14:32:37.911Z,12.33
2018-12-29T14:34:42.328Z,11.63
2018-12-29T14:36:46.699Z,8.90
2018-12-29T14:38:51.136Z,9.43
2018-12-29T14:40:55.609Z,11.73
2018-12-29T14:42:59.975Z,10.60
2018-12-29T14:45:04.421Z,10.57
2018-12-29T14:47:08.846Z,11.47
2018-12-29T14:49:13.198Z,11.93
2018-12-29T14:51:17.571Z,10.13
2018-12-29T14:53:21.945Z,7.60
2018-12-29T14:55:26.402Z,10.07
2018-12-29T14:57:30.863Z,11.50
2018-12-29T14:59:35.238Z,8.80
2018-12-29T15:01:39.662Z,15.37
2018-12-29T15:03:44.098Z,12.33
2018-12-29T15:05:48.539Z,10.10
2018-12-29T15:07:53.592Z,7.70
2018-12-29T15:09:58.018Z,11.83
2018-12-29T15:12:02.379Z,7.07
2018-12-29T15:14:06.742Z,12.20
2018-12-29T15:16:11.158Z,7.50
2018-12-29T15:18:15.522Z,8.63
2018-12-29T15:20:19.981Z,10.00
2018-12-29T15:22:24.383Z,6.57
2018-12-29T15:24:28.843Z,7.90
2018-12-29T15:26:33.372Z,8.33
2018-12-29T15:28:38.215Z,10.47
2018-12-29T15:30:42.577Z,9.20
2018-12-29T15:32:47.042Z,10.47
2018-12-29T15:34:51.450Z,8.03
2018-12-29T15:36:55.980Z,6.40
2018-12-29T15:39:00.669Z,7.77
2018-12-29T15:41:05.082Z,4.40
2018-12-29T15:43:09.638Z,4.87
2018-12-29T15:45:14.055Z,7.70
2018-12-29T15:47:18.437Z,7.73
2018-12-29T15:49:22.888Z,8.03
2018-12-29T15:51:27.294Z,3.53
2018-12-29T15:53:31.776Z,6.73
2018-12-29T15:55:36.251Z,5.87
2018-12-29T15:57:40.727Z,8.57
2018-12-29T15:59:45.118Z,5.57
2018-12-29T16:01:49.666Z,5.73
2018-12-29T16:03:54.067Z,8.67
2018-12-29T16:05:58.581Z,6.23
2018-12-29T16:08:03.720Z,8.67
2018-12-29T16:10:08.261Z,3.23
2018-12-29T16:12:12.759Z,4.90
2018-12-29T16:14:17.156Z,4.30
2018-12-29T16:16:21.611Z,4.73
2018-12-29T16:18:26.556Z,5.97
2018-12-29T16:20:30.991Z,5.80
2018-12-29T16:22:35.386Z,8.20
2018-12-29T16:24:40.182Z,7.17
2018-12-29T16:26:44.599Z,4.07
2018-12-29T16:28:49.047Z,7.40
2018-12-29T16:30:53.419Z,5.80
2018-12-29T16:32:58.295Z,7.63
2018-12-29T16:35:02.717Z,6.30
2018-12-29T16:37:07.206Z,6.57
2018-12-29T16:39:11.713Z,5.00
2018-12-29T16:41:16.089Z,6.00
2018-12-29T16:43:20.469Z,6.33
2018-12-29T16:45:24.917Z,5.10
2018-12-29T16:47:29.331Z,4.07
2018-12-29T16:49:33.807Z,5.20
2018-12-29T16:51:38.213Z,6.60
2018-12-29T16:53:42.625Z,2.50
2018-12-29T16:55:47.059Z,2.80
2018-12-29T16:57:51.486Z,6.53
2018-12-29T16:59:55.818Z,4.20
2018-12-29T17:02:00.330Z,3.40
2018-12-29T17:04:04.718Z,2.57
2018-12-29T17:06:09.141Z,4.50
2018-12-29T17:08:13.534Z,4.33
2018-12-29T17:10:17.982Z,3.73
2018-12-29T17:12:22.471Z,5.47
2018-12-29T17:14:26.910Z,3.60
2018-12-29T17:16:31.381Z,4.27
2018-12-29T17:18:35.852Z,4.00
2018-12-29T17:20:40.237Z,3.10
2018-12-29T17:22:45.469Z,2.40
2018-12-29T17:24:49.890Z,3.63
2018-12-29T17:26:54.300Z,4.63
2018-12-29T17:28:59.823Z,4.83
2018-12-29T17:31:04.214Z,6.77
2018-12-29T17:33:08.658Z,2.80
2018-12-29T17:35:13.151Z,5.93
2018-12-29T17:37:17.514Z,5.33
2018-12-29T17:39:21.892Z,5.27
2018-12-29T17:41:26.334Z,4.93
2018-12-29T17:43:30.725Z,4.90
2018-12-29T17:45:35.211Z,2.80
2018-12-29T17:47:39.637Z,5.53
2018-12-29T17:49:44.001Z,7.83
2018-12-29T17:51:48.392Z,5.13
2018-12-29T17:53:52.788Z,3.97
2018-12-29T17:55:57.172Z,6.43
2018-12-29T17:58:01.588Z,6.47
2018-12-29T18:00:06.406Z,8.40
2018-12-29T18:02:10.810Z,9.07
2018-12-29T18:04:15.266Z,6.57
2018-12-29T18:06:19.702Z,3.90
2018-12-29T18:08:24.205Z,7.07
2018-12-29T18:10:28.632Z,8.70
2018-12-29T18:12:33.060Z,8.70
2018-12-29T18:14:37.477Z,9.97
2018-12-29T18:16:41.914Z,9.73
2018-12-29T18:18:46.338Z,5.40
2018-12-29T18:20:50.731Z,4.93
2018-12-29T18:22:55.089Z,9.97
2018-12-29T18:24:59.837Z,10.23
2018-12-29T18:27:04.248Z,9.70
2018-12-29T18:29:08.662Z,12.13
2018-12-29T18:31:13.077Z,12.47
2018-12-29T18:33:17.481Z,8.60
2018-12-29T18:35:21.864Z,8.93
2018-12-29T18:37:26.233Z,11.13
2018-12-29T18:39:30.643Z,12.20
2018-12-29T18:41:41.270Z,8.27
2018-12-29T18:43:45.723Z,8.83
2018-12-29T18:45:50.094Z,9.63
2018-12-29T18:47:54.448Z,10.07
2018-12-29T18:49:58.863Z,9.17
2018-12-29T18:52:03.265Z,13.90
2018-12-29T18:54:07.646Z,6.93
2018-12-29T18:56:12.415Z,12.80
2018-12-29T18:58:17.671Z,9.80
2018-12-29T19:00:22.075Z,12.03
2018-12-29T19:02:26.474Z,9.73
2018-12-29T19:04:30.928Z,14.30
2018-12-29T19:06:35.299Z,14.87
2018-12-29T19:08:39.713Z,8.67
2018-12-29T19:10:44.121Z,10.23
2018-12-29T19:12:48.486Z,9.37
2018-12-29T19:14:52.877Z,8.80
2018-12-29T19:16:57.275Z,11.97
2018-12-29T19:19:02.171Z,17.50
2018-12-29T19:21:06.565Z,11.40
2018-12-29T19:23:10.934Z,10.33
2018-12-29T19:25:15.351Z,15.07
2018-12-29T19:27:20.624Z,9.93
2018-12-29T19:29:25.055Z,11.53
2018-12-29T19:31:29.521Z,14.90
2018-12-29T19:33:33.800Z,10.43
2018-12-29T19:35:38.195Z,16.93
2018-12-29T19:37:42.705Z,16.83
2018-12-29T19:39:47.097Z,11.17
2018-12-29T19:41:55.070Z,7.10
2018-12-29T19:43:55.979Z,16.90
2018-12-29T19:46:00.376Z,13.27
2018-12-29T19:48:04.785Z,13.23
2018-12-29T19:50:09.189Z,18.00
2018-12-29T19:52:13.633Z,10.53
2018-12-29T19:54:17.963Z,16.73
2018-12-29T19:56:22.937Z,10.40
2018-12-29T19:58:27.329Z,15.60
2018-12-29T20:00:31.690Z,6.43
2018-12-29T20:02:36.098Z,13.77
2018-12-29T20:04:40.505Z,8.43
2018-12-29T20:06:44.942Z,5.90
2018-12-29T20:08:49.441Z,8.77
2018-12-29T20:10:53.845Z,17.63
2018-12-29T20:12:58.252Z,14.77
2018-12-29T20:15:02.638Z,10.27
2018-12-29T20:17:08.712Z,11.17
2018-12-29T20:19:11.566Z,10.47
2018-12-29T20:21:15.932Z,10.17
2018-12-29T20:23:20.311Z,7.53
2018-12-29T20:25:24.894Z,5.00
2018-12-29T20:27:29.354Z,12.50
2018-12-29T20:29:34.629Z,12.77
2018-12-29T20:31:39.066Z,13.43
2018-12-29T20:33:43.512Z,11.37
2018-12-29T20:35:48.079Z,6.10
2018-12-29T20:37:52.572Z,8.23
2018-12-29T20:39:57.019Z,10.60
2018-12-29T20:42:01.428Z,7.40
2018-12-29T20:44:05.824Z,9.33
2018-12-29T20:46:10.446Z,8.50
2018-12-29T20:48:14.843Z,7.20
2018-12-29T20:50:19.754Z,4.43
2018-12-29T20:52:25.554Z,3.13
2018-12-29T20:54:29.961Z,5.37
2018-12-29T20:56:34.391Z,4.83
2018-12-29T20:58:38.874Z,5.50
2018-12-29T21:00:43.348Z,4.47
2018-12-29T21:02:47.850Z,2.37
2018-12-29T21:04:52.322Z,3.73
2018-12-29T21:06:56.846Z,3.03
2018-12-29T21:09:01.307Z,0.87
2018-12-29T21:11:05.811Z,2.03
2018-12-29T21:13:10.262Z,1.87
2018-12-29T21:15:14.641Z,1.07
2018-12-29T21:17:19.270Z,1.57
2018-12-29T21:19:23.684Z,1.70
2018-12-29T21:21:30.759Z,2.90
2018-12-29T21:23:35.665Z,1.13
2018-12-29T21:25:40.178Z,1.77
2018-12-29T21:27:44.683Z,2.07
2018-12-29T21:29:49.121Z,1.50
2018-12-29T21:31:53.621Z,1.57
2018-12-29T21:33:58.087Z,1.10
2018-12-29T21:36:02.767Z,1.70
2018-12-29T21:38:07.649Z,1.80
2018-12-29T21:40:12.670Z,1.50
2018-12-29T21:42:17.168Z,1.70
2018-12-29T21:46:37.109Z,1.00
2018-12-29T21:48:41.787Z,0.53
2018-12-29T21:50:46.253Z,1.17
2018-12-29T21:52:53.896Z,1.57
2018-12-29T21:54:58.721Z,0.67
2018-12-29T21:57:03.120Z,1.53
2018-12-29T21:59:07.640Z,1.50
2018-12-29T22:01:12.111Z,0.90
2018-12-29T22:03:16.523Z,1.43
2018-12-29T22:05:20.967Z,1.67
2018-12-29T22:07:25.405Z,1.00
2018-12-29T22:09:29.822Z,1.50
2018-12-29T22:11:34.683Z,1.80
2018-12-29T22:13:39.140Z,0.70
2018-12-29T22:15:43.562Z,0.63
2018-12-29T22:17:48.163Z,2.43
2018-12-29T22:19:53.456Z,0.90
2018-12-29T22:21:57.974Z,1.80
2018-12-29T22:24:02.525Z,1.50
2018-12-29T22:26:07.014Z,1.63
2018-12-29T22:28:11.448Z,1.93
2018-12-29T22:30:15.858Z,1.57
2018-12-29T22:32:20.290Z,1.07
2018-12-29T22:34:24.662Z,1.20
2018-12-29T22:36:29.142Z,1.30
2018-12-29T22:38:34.626Z,1.47
2018-12-29T22:40:38.990Z,1.67
2018-12-29T22:42:43.851Z,2.07
2018-12-29T22:44:48.242Z,2.17
2018-12-29T22:46:52.650Z,1.13
2018-12-29T22:48:57.105Z,1.20
2018-12-29T22:51:01.508Z,1.73
2018-12-29T22:53:05.923Z,2.10
2018-12-29T22:55:10.661Z,1.63
2018-12-29T22:57:16.111Z,1.30
2018-12-29T22:59:20.515Z,1.73
2018-12-29T23:01:25.045Z,1.23
2018-12-29T23:03:29.466Z,1.00
2018-12-29T23:05:33.891Z,0.83
2018-12-29T23:07:39.938Z,2.27
2018-12-29T23:09:44.362Z,2.37
2018-12-29T23:11:49.102Z,1.80
2018-12-29T23:13:53.506Z,1.70
2018-12-29T23:15:57.918Z,1.57
2018-12-29T23:18:02.630Z,1.27
2018-12-29T23:20:07.193Z,1.23
2018-12-29T23:22:12.173Z,1.13
2018-12-29T23:24:16.583Z,1.20
2018-12-29T23:26:20.976Z,2.33
2018-12-29T23:28:25.504Z,1.90
2018-12-29T23:30:31.611Z,1.67
2018-12-29T23:32:36.046Z,1.37
2018-12-29T23:34:40.518Z,1.27
2018-12-29T23:36:45.471Z,1.00
2018-12-29T23:38:50.030Z,1.30
2018-12-29T23:40:54.390Z,1.33
2018-12-29T23:42:58.766Z,1.70
2018-12-29T23:45:03.232Z,1.87
2018-12-29T23:47:07.591Z,1.97
2018-12-29T23:49:12.016Z,2.40
2018-12-29T23:51:16.509Z,1.93
2018-12-29T23:53:20.886Z,1.80
2018-12-29T23:55:25.387Z,1.67
2018-12-29T23:57:29.831Z,1.53
2018-12-29T23:59:34.246Z,1.70
